Minturn, Colorado
Current Conditions -  °F | °C
As of 12:55 AM on Monday 22 Dec 2014 (Local Time) from KCCU Reporting Station
Overcast Overcast  
Wind Chill:   Ceiling: 200
Heat Index: 21°   Visibility: NA
Dew Point: 14°   Wind: 20mph
Humidity: 74%   Direction: 280°W
Pressure: 29.74"   Gusts: 46mph
Location:  39.59°N, 106.43°W
Report Text: KCCU 220755Z AUTO 28017G40KT OVC002 M06/M10 A2974 RMK AO2 PWINO
Loading
Personal Weather Stations






























Interactive Weather Map New forecast layout! Learn more

10-Day Weather Forecast

Advertisements
Track Severe Weather on mobile